TimeCDT,TemperatureF,Dew PointF,Humidity,Sea Level PressureIn,VisibilityMPH,Wind Direction,Wind SpeedMPH,Gust SpeedMPH,PrecipitationIn,Events,Conditions,WindDirDegrees,DateUTC
12:52 AM,55.9,34.0,44,30.22,10.0,SSE,16.1,-,N/A,,Clear,160,2013-03-14 05:52:00
1:52 AM,53.1,35.1,50,30.22,10.0,SSE,11.5,-,N/A,,Clear,150,2013-03-14 06:52:00
2:52 AM,50.0,35.1,57,30.22,10.0,SE,5.8,-,N/A,,Clear,140,2013-03-14 07:52:00
3:52 AM,51.1,35.1,54,30.21,10.0,SSE,5.8,-,N/A,,Clear,150,2013-03-14 08:52:00
4:52 AM,53.1,35.1,50,30.19,10.0,South,9.2,-,N/A,,Clear,190,2013-03-14 09:52:00
5:52 AM,54.0,36.0,51,30.20,10.0,South,9.2,-,N/A,,Clear,190,2013-03-14 10:52:00
6:52 AM,55.0,37.0,51,30.19,10.0,South,12.7,-,N/A,,Clear,180,2013-03-14 11:52:00
7:52 AM,54.0,37.9,55,30.22,10.0,South,9.2,-,N/A,,Clear,180,2013-03-14 12:52:00
8:52 AM,55.9,37.9,51,30.24,10.0,South,13.8,-,N/A,,Clear,180,2013-03-14 13:52:00
9:52 AM,60.1,37.9,44,30.25,10.0,South,18.4,24.2,N/A,,Clear,190,2013-03-14 14:52:00
11:52 AM,66.9,43.0,42,30.24,10.0,SSW,19.6,28.8,N/A,,Clear,200,2013-03-14 16:52:00
12:52 PM,71.1,43.0,36,30.23,10.0,SSW,18.4,28.8,N/A,,Clear,200,2013-03-14 17:52:00
1:52 PM,73.9,43.0,33,30.20,10.0,SSW,17.3,25.3,N/A,,Clear,200,2013-03-14 18:52:00
2:52 PM,77.0,39.0,25,30.16,10.0,South,16.1,25.3,N/A,,Clear,190,2013-03-14 19:52:00
3:52 PM,79.0,39.0,24,30.13,10.0,South,16.1,29.9,N/A,,Clear,180,2013-03-14 20:52:00
4:52 PM,80.1,37.9,22,30.11,10.0,SSW,13.8,-,N/A,,Clear,200,2013-03-14 21:52:00
5:52 PM,79.0,36.0,21,30.09,10.0,South,16.1,21.9,N/A,,Clear,180,2013-03-14 22:52:00
6:52 PM,77.0,34.0,21,30.09,10.0,South,13.8,23.0,N/A,,Clear,190,2013-03-14 23:52:00
7:52 PM,73.0,34.0,24,30.10,10.0,South,8.1,-,N/A,,Clear,180,2013-03-15 00:52:00
8:52 PM,66.0,35.1,32,30.11,10.0,SSE,9.2,-,N/A,,Clear,150,2013-03-15 01:52:00
9:52 PM,63.0,36.0,37,30.11,10.0,SE,8.1,-,N/A,,Clear,140,2013-03-15 02:52:00
10:52 PM,63.0,36.0,37,30.11,10.0,South,9.2,-,N/A,,Clear,170,2013-03-15 03:52:00
11:52 PM,64.9,37.0,36,30.10,10.0,South,12.7,-,N/A,,Clear,180,2013-03-15 04:52:00